createdAt,value
2023-04-26T00:03:00.096Z,59.48
2023-04-26T00:08:02.861Z,59.60
2023-04-26T00:13:04.619Z,59.59
2023-04-26T00:18:06.480Z,59.78
2023-04-26T00:23:10.565Z,59.94
2023-04-26T00:28:12.290Z,59.98
2023-04-26T00:33:14.096Z,60.14
2023-04-26T00:38:16.146Z,60.02
2023-04-26T00:43:17.906Z,60.44
2023-04-26T00:48:20.786Z,60.27
2023-04-26T00:53:23.714Z,60.30
2023-04-26T00:58:26.376Z,60.46
2023-04-26T01:03:28.525Z,60.60
2023-04-26T01:08:30.438Z,60.50
2023-04-26T01:13:32.778Z,60.52
2023-04-26T01:18:35.341Z,60.71
2023-04-26T01:23:37.060Z,60.80
2023-04-26T01:28:40.114Z,60.84
2023-04-26T01:33:41.965Z,60.83
2023-04-26T01:38:43.730Z,60.82
2023-04-26T01:43:45.496Z,60.87
2023-04-26T01:48:47.415Z,61.33
2023-04-26T01:53:49.385Z,61.31
2023-04-26T01:58:51.408Z,61.10
2023-04-26T02:03:53.514Z,61.33
2023-04-26T02:08:55.591Z,61.34
2023-04-26T02:13:57.538Z,61.55
2023-04-26T02:19:00.225Z,61.45
2023-04-26T02:24:02.003Z,61.39
2023-04-26T02:29:06.389Z,61.21
2023-04-26T02:34:08.651Z,61.44
2023-04-26T02:39:12.134Z,61.52
2023-04-26T02:44:14.141Z,61.41
2023-04-26T02:49:16.624Z,61.49
2023-04-26T02:54:18.651Z,61.45
2023-04-26T02:59:20.441Z,61.39
2023-04-26T03:04:22.939Z,61.54
2023-04-26T03:09:24.796Z,61.61
2023-04-26T03:14:27.248Z,61.71
2023-04-26T03:19:31.202Z,62.05
2023-04-26T03:24:33.054Z,62.00
2023-04-26T03:29:35.012Z,61.76
2023-04-26T03:34:36.807Z,61.91
2023-04-26T03:39:38.603Z,62.51
2023-04-26T03:44:41.042Z,62.29
2023-04-26T03:49:42.962Z,62.30
2023-04-26T03:54:44.730Z,62.28
2023-04-26T03:59:47.151Z,62.25
2023-04-26T04:04:49.273Z,62.31
2023-04-26T04:09:51.377Z,62.41
2023-04-26T04:14:54.998Z,62.23
2023-04-26T04:19:58.349Z,62.15
2023-04-26T04:25:00.282Z,61.95
2023-04-26T04:30:03.792Z,61.76
2023-04-26T04:35:07.417Z,61.41
2023-04-26T04:40:11.661Z,61.32
2023-04-26T04:45:15.762Z,61.27
2023-04-26T04:50:17.955Z,60.64
2023-04-26T04:55:19.916Z,59.50
2023-04-26T05:00:22.000Z,59.06
2023-04-26T05:05:36.144Z,57.30
2023-04-26T05:10:38.723Z,57.16
2023-04-26T05:15:41.160Z,57.54
2023-04-26T05:20:43.140Z,57.58
2023-04-26T05:25:45.043Z,57.43
2023-04-26T05:31:05.418Z,57.34
2023-04-26T05:36:42.676Z,57.47
2023-04-26T05:41:44.815Z,57.50
2023-04-26T05:46:46.896Z,57.88
2023-04-26T05:51:48.774Z,58.30
2023-04-26T05:56:50.562Z,58.13
2023-04-26T06:01:52.649Z,57.67
2023-04-26T06:06:54.440Z,57.83
2023-04-26T06:11:57.136Z,57.86
2023-04-26T06:16:59.383Z,57.56
2023-04-26T06:22:02.560Z,57.37
2023-04-26T06:27:04.446Z,57.28
2023-04-26T06:32:06.535Z,57.08
2023-04-26T06:37:09.123Z,56.54
2023-04-26T06:42:14.162Z,55.90
2023-04-26T06:47:36.102Z,55.64
2023-04-26T06:52:37.940Z,55.47
2023-04-26T06:57:39.727Z,55.04
2023-04-26T07:02:42.274Z,54.62
2023-04-26T07:07:44.240Z,53.83
2023-04-26T07:12:46.056Z,52.90
2023-04-26T07:17:47.876Z,51.51
2023-04-26T07:22:50.958Z,50.49
2023-04-26T07:27:52.760Z,50.16
2023-04-26T07:32:54.646Z,49.17
2023-04-26T07:37:56.743Z,47.46
2023-04-26T07:42:59.116Z,44.13
2023-04-26T07:48:01.029Z,41.99
2023-04-26T07:53:02.997Z,41.36
2023-04-26T07:58:04.793Z,40.32
2023-04-26T08:03:07.200Z,40.58
2023-04-26T08:08:09.178Z,39.49
2023-04-26T08:13:10.941Z,38.90
2023-04-26T08:18:13.324Z,39.58
2023-04-26T08:23:15.178Z,39.32
2023-04-26T08:28:16.936Z,39.91
2023-04-26T08:33:19.110Z,40.86
2023-04-26T08:38:22.806Z,39.90
2023-04-26T08:43:24.751Z,38.67
2023-04-26T08:48:28.591Z,39.36
2023-04-26T08:53:31.584Z,39.58
2023-04-26T08:58:33.498Z,40.86
2023-04-26T09:03:35.660Z,39.41
2023-04-26T09:08:41.731Z,39.61
2023-04-26T09:13:43.503Z,39.40
2023-04-26T09:18:52.605Z,37.34
2023-04-26T09:23:59.600Z,37.02
2023-04-26T09:29:18.474Z,35.77
2023-04-26T09:34:23.074Z,35.81
2023-04-26T09:39:33.368Z,33.43
2023-04-26T09:44:38.569Z,35.87
2023-04-26T09:49:46.781Z,35.27
2023-04-26T09:54:49.475Z,37.36
2023-04-26T09:59:57.541Z,36.57
2023-04-26T10:05:02.301Z,36.84
2023-04-26T10:10:05.465Z,35.69
2023-04-26T10:15:09.329Z,35.34
2023-04-26T10:20:14.412Z,34.56
2023-04-26T10:25:16.339Z,34.35
2023-04-26T10:30:20.466Z,33.47
2023-04-26T10:35:32.704Z,33.83
2023-04-26T10:40:39.380Z,32.14
2023-04-26T10:45:42.630Z,33.15
2023-04-26T10:51:02.771Z,32.17
2023-04-26T10:56:04.880Z,33.32
2023-04-26T11:01:17.457Z,32.11
2023-04-26T11:06:19.334Z,33.19
2023-04-26T11:11:26.462Z,32.36
2023-04-26T11:16:29.130Z,33.13
2023-04-26T11:21:32.725Z,32.36
2023-04-26T11:26:35.249Z,31.94
2023-04-26T11:31:37.531Z,31.89
2023-04-26T11:36:39.601Z,30.76
2023-04-26T11:41:41.406Z,29.75
2023-04-26T11:46:43.549Z,29.36
2023-04-26T11:51:48.723Z,28.94
2023-04-26T11:56:50.845Z,29.24
2023-04-26T12:01:53.670Z,29.09
2023-04-26T12:06:57.156Z,28.29
2023-04-26T12:11:59.505Z,28.14
2023-04-26T12:17:03.328Z,28.44
2023-04-26T12:22:07.070Z,28.33
2023-04-26T12:27:08.919Z,27.29
2023-04-26T12:32:10.676Z,27.06
2023-04-26T12:37:12.485Z,28.55
2023-04-26T12:42:14.218Z,29.54
2023-04-26T12:47:15.960Z,28.06
2023-04-26T12:52:17.805Z,31.06
2023-04-26T12:57:21.474Z,28.79
2023-04-26T13:02:23.528Z,28.82
2023-04-26T13:07:25.865Z,29.56
2023-04-26T13:12:28.572Z,28.56
2023-04-26T13:17:31.801Z,28.66
2023-04-26T13:22:34.702Z,27.13
2023-04-26T13:27:36.967Z,28.18
2023-04-26T13:32:39.698Z,28.16
2023-04-26T13:37:42.416Z,27.44
2023-04-26T13:42:44.187Z,28.18
2023-04-26T13:47:46.197Z,27.61
2023-04-26T13:52:50.874Z,27.81
2023-04-26T13:57:52.604Z,27.63
2023-04-26T14:02:54.665Z,27.41
2023-04-26T14:07:57.242Z,26.59
2023-04-26T14:12:58.962Z,27.03
2023-04-26T14:18:00.920Z,27.09
2023-04-26T14:23:02.708Z,26.93
2023-04-26T14:28:04.469Z,27.59
2023-04-26T14:33:06.305Z,27.82
2023-04-26T14:38:08.092Z,28.06
2023-04-26T14:43:09.836Z,28.06
2023-04-26T14:48:12.516Z,28.69
2023-04-26T14:53:14.363Z,28.71
2023-04-26T14:58:20.165Z,28.19
2023-04-26T15:03:28.009Z,28.54
2023-04-26T15:08:30.652Z,30.27
2023-04-26T15:13:32.555Z,29.23
2023-04-26T15:18:34.419Z,29.37
2023-04-26T15:23:41.678Z,29.35
2023-04-26T15:28:44.425Z,28.30
2023-04-26T15:33:46.683Z,28.35
2023-04-26T15:38:49.625Z,28.79
2023-04-26T15:43:55.788Z,28.49
2023-04-26T15:48:57.575Z,27.63
2023-04-26T15:53:59.318Z,27.21
2023-04-26T15:59:01.108Z,26.72
2023-04-26T16:04:03.044Z,26.31
2023-04-26T16:09:23.276Z,26.65
2023-04-26T16:14:25.508Z,27.07
2023-04-26T16:19:27.648Z,26.91
2023-04-26T16:24:29.423Z,27.16
2023-04-26T16:29:31.266Z,27.67
2023-04-26T16:34:33.018Z,27.70
2023-04-26T16:39:36.081Z,27.52
2023-04-26T16:44:37.834Z,27.58
2023-04-26T16:49:39.549Z,27.95
2023-04-26T16:54:41.856Z,28.41
2023-04-26T16:59:43.590Z,29.01
2023-04-26T17:04:45.830Z,29.28
2023-04-26T17:09:47.704Z,29.16
2023-04-26T17:14:49.489Z,29.17
2023-04-26T17:19:51.297Z,29.45
2023-04-26T17:24:53.034Z,30.56
2023-04-26T17:29:54.780Z,31.13
2023-04-26T17:39:56.276Z,31.51
2023-04-26T17:44:58.622Z,32.07
2023-04-26T17:50:00.583Z,31.36
2023-04-26T17:55:02.576Z,32.01
2023-04-26T18:00:06.865Z,32.18
2023-04-26T18:05:09.939Z,32.86
2023-04-26T18:10:11.712Z,32.45
2023-04-26T18:15:14.043Z,33.33
2023-04-26T18:20:16.552Z,33.20
2023-04-26T18:25:18.424Z,33.31
2023-04-26T18:30:20.382Z,33.92
2023-04-26T18:35:22.106Z,33.87
2023-04-26T18:40:24.565Z,34.38
2023-04-26T18:45:26.327Z,35.48
2023-04-26T18:50:28.076Z,36.41
2023-04-26T18:55:29.857Z,37.25
2023-04-26T19:00:32.725Z,37.75
2023-04-26T19:05:34.547Z,38.29
2023-04-26T19:10:36.576Z,39.26
2023-04-26T19:15:38.400Z,40.05
2023-04-26T19:20:40.296Z,40.63
2023-04-26T19:25:42.112Z,40.81
2023-04-26T19:30:43.870Z,41.27
2023-04-26T19:35:45.698Z,42.16
2023-04-26T19:40:47.500Z,42.45
2023-04-26T19:45:49.311Z,43.47
2023-04-26T19:50:51.104Z,44.08
2023-04-26T19:55:52.833Z,44.43
2023-04-26T20:00:55.310Z,44.71
2023-04-26T20:05:57.101Z,45.41
2023-04-26T20:11:03.915Z,46.35
2023-04-26T20:16:06.665Z,46.28
2023-04-26T20:21:09.454Z,46.47
2023-04-26T20:26:11.512Z,46.41
2023-04-26T20:31:13.255Z,46.69
2023-04-26T20:36:15.430Z,47.51
2023-04-26T20:41:17.163Z,47.80
2023-04-26T20:46:19.118Z,47.64
2023-04-26T20:51:20.937Z,48.24
2023-04-26T20:56:22.689Z,48.25
2023-04-26T21:01:24.495Z,48.58
2023-04-26T21:06:27.253Z,49.10
2023-04-26T21:11:29.120Z,49.35
2023-04-26T21:16:31.113Z,49.42
2023-04-26T21:21:32.875Z,49.56
2023-04-26T21:26:34.645Z,49.86
2023-04-26T21:31:36.464Z,50.33
2023-04-26T21:36:38.346Z,51.06
2023-04-26T21:41:40.420Z,50.77
2023-04-26T21:46:42.236Z,50.73
2023-04-26T21:51:44.201Z,50.95
2023-04-26T21:56:45.960Z,51.25
2023-04-26T22:01:47.733Z,51.30
2023-04-26T22:06:49.513Z,51.79
2023-04-26T22:11:51.285Z,51.64
2023-04-26T22:16:53.037Z,51.74
2023-04-26T22:21:56.253Z,51.74
2023-04-26T22:26:58.263Z,51.76
2023-04-26T22:32:00.063Z,52.12
2023-04-26T22:37:17.151Z,52.52
2023-04-26T22:42:22.373Z,52.38
2023-04-26T22:47:24.278Z,52.53
2023-04-26T22:52:31.647Z,52.63
2023-04-26T22:57:34.063Z,52.87
2023-04-26T23:02:35.834Z,52.88
2023-04-26T23:07:39.172Z,53.08
2023-04-26T23:12:41.344Z,53.36
2023-04-26T23:17:44.151Z,53.52
2023-04-26T23:22:46.062Z,53.60
2023-04-26T23:27:47.782Z,53.73
2023-04-26T23:32:49.623Z,53.70
2023-04-26T23:37:52.593Z,54.02
2023-04-26T23:42:54.446Z,54.19
2023-04-26T23:47:56.202Z,54.40
2023-04-26T23:52:58.059Z,54.39
2023-04-26T23:57:59.816Z,54.51
